createdAt,value
2022-10-17T00:04:47.877Z,8.00
2022-10-17T00:10:58.858Z,7.90
2022-10-17T00:17:00.857Z,7.80
2022-10-17T00:23:02.889Z,7.80
2022-10-17T00:29:05.076Z,7.70
2022-10-17T00:35:08.088Z,7.70
2022-10-17T00:41:13.163Z,7.70
2022-10-17T00:47:19.758Z,7.60
2022-10-17T00:53:22.040Z,7.60
2022-10-17T00:59:25.204Z,7.50
2022-10-17T01:05:27.272Z,7.40
2022-10-17T01:11:30.643Z,7.40
2022-10-17T01:17:41.432Z,7.30
2022-10-17T01:24:17.383Z,7.20
2022-10-17T01:30:50.017Z,7.20
2022-10-17T01:36:59.661Z,7.20
2022-10-17T01:43:25.098Z,7.20
2022-10-17T01:49:31.520Z,7.10
2022-10-17T01:55:37.971Z,7.10
2022-10-17T02:01:42.512Z,7.00
2022-10-17T02:07:44.643Z,7.00
2022-10-17T02:14:07.773Z,7.00
2022-10-17T02:20:30.848Z,7.00
2022-10-17T02:26:45.952Z,7.00
2022-10-17T02:33:14.021Z,6.90
2022-10-17T02:39:17.259Z,6.90
2022-10-17T02:45:20.152Z,6.90
2022-10-17T02:51:43.194Z,6.90
2022-10-17T02:57:51.413Z,6.80
2022-10-17T03:04:06.012Z,6.80
2022-10-17T03:10:08.694Z,6.80
2022-10-17T03:16:11.868Z,6.80
2022-10-17T03:22:14.220Z,6.70
2022-10-17T03:28:19.479Z,6.70
2022-10-17T03:34:22.006Z,6.70
2022-10-17T03:40:24.333Z,6.70
2022-10-17T03:46:26.499Z,6.60
2022-10-17T03:52:30.272Z,6.60
2022-10-17T03:58:33.427Z,6.60
2022-10-17T04:04:35.838Z,6.60
2022-10-17T04:10:38.557Z,6.50
2022-10-17T04:16:40.642Z,6.50
2022-10-17T04:22:48.514Z,6.50
2022-10-17T04:28:51.379Z,6.50
2022-10-17T04:34:53.332Z,6.50
2022-10-17T04:41:04.736Z,6.60
2022-10-17T04:47:08.470Z,6.70
2022-10-17T04:53:10.924Z,6.80
2022-10-17T04:59:13.100Z,6.90
2022-10-17T05:05:16.621Z,7.30
2022-10-17T05:11:26.728Z,11.60
2022-10-17T05:17:28.865Z,14.70
2022-10-17T05:23:31.065Z,17.00
2022-10-17T05:29:35.075Z,15.00
2022-10-17T05:35:45.009Z,12.30
2022-10-17T05:41:47.241Z,11.40
2022-10-17T05:47:49.452Z,11.20
2022-10-17T05:53:52.210Z,11.30
2022-10-17T05:59:59.446Z,11.10
2022-10-17T06:06:14.973Z,11.00
2022-10-17T06:12:19.466Z,11.20
2022-10-17T06:18:22.431Z,11.50
2022-10-17T06:24:24.605Z,13.20
2022-10-17T06:30:28.226Z,18.90
2022-10-17T06:36:30.520Z,24.40
2022-10-17T06:42:33.858Z,27.50
2022-10-17T06:48:59.198Z,28.90
2022-10-17T06:55:31.703Z,30.30
2022-10-17T07:01:55.698Z,30.60
2022-10-17T07:07:59.699Z,29.50
2022-10-17T07:14:02.394Z,31.70
2022-10-17T07:20:04.608Z,32.50
2022-10-17T07:26:11.734Z,32.60
2022-10-17T07:32:14.971Z,32.20
2022-10-17T07:38:17.568Z,32.50
2022-10-17T07:44:19.899Z,33.20
2022-10-17T07:50:25.472Z,33.30
2022-10-17T07:56:27.500Z,32.50
2022-10-17T08:02:29.575Z,32.10
2022-10-17T08:08:32.161Z,32.20
2022-10-17T08:14:34.319Z,26.50
2022-10-17T08:20:37.191Z,24.10
2022-10-17T08:26:42.446Z,21.40
2022-10-17T08:32:46.146Z,19.90
2022-10-17T08:38:52.593Z,19.10
2022-10-17T08:45:16.600Z,18.50
2022-10-17T08:51:27.965Z,18.30
2022-10-17T08:57:30.583Z,18.10
2022-10-17T09:03:50.591Z,18.00
2022-10-17T09:10:13.145Z,17.60
2022-10-17T09:16:31.164Z,17.50
2022-10-17T09:23:02.436Z,17.40
2022-10-17T09:29:16.294Z,17.30
2022-10-17T09:35:19.429Z,17.30
2022-10-17T09:41:44.830Z,17.40
2022-10-17T09:48:01.874Z,17.40
2022-10-17T09:54:09.289Z,17.40
2022-10-17T10:00:22.050Z,17.60
2022-10-17T10:06:23.995Z,17.70
2022-10-17T10:13:02.377Z,17.80
2022-10-17T10:19:21.947Z,17.90
2022-10-17T10:25:24.033Z,18.00
2022-10-17T10:31:35.508Z,18.10
2022-10-17T10:37:42.193Z,18.40
2022-10-17T10:43:48.055Z,18.50
2022-10-17T10:50:08.383Z,18.90
2022-10-17T10:56:21.411Z,19.20
2022-10-17T11:02:43.418Z,20.20
2022-10-17T11:08:51.489Z,24.30
2022-10-17T11:15:21.187Z,27.60
2022-10-17T11:21:58.462Z,30.00
2022-10-17T11:28:04.880Z,31.00
2022-10-17T11:34:29.668Z,31.50
2022-10-17T11:40:35.599Z,31.20
2022-10-17T11:46:39.611Z,27.40
2022-10-17T11:53:02.949Z,23.10
2022-10-17T11:59:42.520Z,22.30
2022-10-17T12:05:57.674Z,20.60
2022-10-17T12:12:02.508Z,20.20
2022-10-17T12:18:05.252Z,20.00
2022-10-17T12:24:20.589Z,19.70
2022-10-17T12:30:25.705Z,19.60
2022-10-17T12:36:27.788Z,19.20
2022-10-17T12:42:31.299Z,19.30
2022-10-17T12:48:42.396Z,19.20
2022-10-17T12:55:12.997Z,19.00
2022-10-17T13:01:31.682Z,18.90
2022-10-17T13:07:35.165Z,19.70
2022-10-17T13:13:44.967Z,19.60
2022-10-17T13:19:47.550Z,19.00
2022-10-17T13:26:02.010Z,18.80
2022-10-17T13:32:06.044Z,18.70
2022-10-17T13:38:08.232Z,18.70
2022-10-17T13:44:21.267Z,18.60
2022-10-17T13:50:43.764Z,18.50
2022-10-17T13:56:46.540Z,18.40
2022-10-17T14:02:49.047Z,18.30
2022-10-17T14:09:00.982Z,18.20
2022-10-17T14:15:11.902Z,18.00
2022-10-17T14:21:44.398Z,17.90
2022-10-17T14:28:02.932Z,17.80
2022-10-17T14:34:05.753Z,17.70
2022-10-17T14:40:08.459Z,17.40
2022-10-17T14:46:17.039Z,17.10
2022-10-17T14:52:19.226Z,16.80
2022-10-17T14:58:29.526Z,16.60
2022-10-17T15:04:31.565Z,16.40
2022-10-17T15:10:36.019Z,16.30
2022-10-17T15:16:39.644Z,16.00
2022-10-17T15:22:41.666Z,15.70
2022-10-17T15:28:44.503Z,15.50
2022-10-17T15:34:49.875Z,15.20
2022-10-17T15:40:52.222Z,15.10
2022-10-17T15:46:55.907Z,14.90
2022-10-17T15:52:58.087Z,14.70
2022-10-17T15:59:12.953Z,14.50
2022-10-17T16:05:19.119Z,14.20
2022-10-17T16:11:32.231Z,14.10
2022-10-17T16:17:34.159Z,13.80
2022-10-17T16:23:36.080Z,13.60
2022-10-17T16:29:38.011Z,13.50
2022-10-17T16:35:40.196Z,13.30
2022-10-17T16:41:42.265Z,13.20
2022-10-17T16:47:44.259Z,13.00
2022-10-17T16:53:50.219Z,12.90
2022-10-17T16:59:52.917Z,12.80
2022-10-17T17:05:55.022Z,12.60
2022-10-17T17:11:57.211Z,12.50
2022-10-17T17:18:04.114Z,12.30
2022-10-17T17:24:07.713Z,12.30
2022-10-17T17:30:10.261Z,12.10
2022-10-17T17:36:17.391Z,12.00
2022-10-17T17:42:20.169Z,11.90
2022-10-17T17:48:22.417Z,11.80
2022-10-17T17:54:24.414Z,11.70
2022-10-17T18:00:26.675Z,11.60
2022-10-17T18:06:29.342Z,11.60
2022-10-17T18:12:32.476Z,11.60
2022-10-17T18:18:34.663Z,11.70
2022-10-17T18:24:36.871Z,11.60
2022-10-17T18:30:39.237Z,11.50
2022-10-17T18:36:41.370Z,11.40
2022-10-17T18:42:43.513Z,11.40
2022-10-17T18:48:46.880Z,11.30
2022-10-17T18:54:49.431Z,11.20
2022-10-17T19:00:51.783Z,11.00
2022-10-17T19:06:53.973Z,10.90
2022-10-17T19:12:55.972Z,10.80
2022-10-17T19:19:04.586Z,10.80
2022-10-17T19:25:06.972Z,10.60
2022-10-17T19:31:09.977Z,10.60
2022-10-17T19:37:14.532Z,10.50
2022-10-17T19:43:17.034Z,10.40
2022-10-17T19:49:19.334Z,10.30
2022-10-17T19:55:22.138Z,10.20
2022-10-17T20:01:25.566Z,10.20
2022-10-17T20:07:27.777Z,10.10
2022-10-17T20:13:30.107Z,10.10
2022-10-17T20:19:32.676Z,9.90
2022-10-17T20:25:38.368Z,9.90
2022-10-17T20:31:42.508Z,9.90
2022-10-17T20:37:44.578Z,9.80
2022-10-17T20:43:46.806Z,9.80
2022-10-17T20:49:49.035Z,9.80
2022-10-17T20:56:05.034Z,9.70
2022-10-17T21:02:07.862Z,9.60
2022-10-17T21:08:09.864Z,9.60
2022-10-17T21:14:12.626Z,9.50
2022-10-17T21:20:14.797Z,9.50
2022-10-17T21:26:18.362Z,9.40
2022-10-17T21:32:33.349Z,9.40
2022-10-17T21:38:43.492Z,9.30
2022-10-17T21:44:45.460Z,9.30
2022-10-17T21:50:47.558Z,9.30
2022-10-17T21:56:50.482Z,9.30
2022-10-17T22:02:52.685Z,9.20
2022-10-17T22:08:55.400Z,9.20
2022-10-17T22:14:57.541Z,9.10
2022-10-17T22:21:04.873Z,9.10
2022-10-17T22:27:06.870Z,9.10
2022-10-17T22:33:09.082Z,9.10
2022-10-17T22:39:12.080Z,9.10
2022-10-17T22:45:14.265Z,9.00
2022-10-17T22:51:17.823Z,8.90
2022-10-17T22:57:20.125Z,8.80
2022-10-17T23:03:23.350Z,8.70
2022-10-17T23:15:51.845Z,8.60
2022-10-17T23:21:54.017Z,8.60
2022-10-17T23:27:56.066Z,8.50
2022-10-17T23:33:59.009Z,8.50
2022-10-17T23:40:01.639Z,8.40
2022-10-17T23:46:05.429Z,8.40
2022-10-17T23:52:07.829Z,8.30
2022-10-17T23:58:10.087Z,8.30
